Time;durP1;ratioP1;P1;durP2;ratioP2;P2;SDS_P1;SDS_P2;PMS_P1;PMS_P2;Temp;Humidity;BMP_temperature;BMP_pressure;BME280_temperature;BME280_humidity;BME280_pressure;Samples;Min_cycle;Max_cycle;Signal;HPM_P1;HPM_P2
2022/12/12 00:01:34;;;;;;;27.15;14.57;;;;;;;-0.27;100.00;100996.66;5068995;28;20055;-74
2022/12/12 00:03:59;;;;;;;25.27;13.90;;;;;;;-0.29;100.00;100994.16;5068382;28;20029;-74
2022/12/12 00:06:26;;;;;;;30.05;12.25;;;;;;;-0.32;100.00;100998.78;5067966;28;20029;-74
2022/12/12 00:08:52;;;;;;;27.25;14.18;;;;;;;-0.45;100.00;100980.59;5068561;28;20442;-74
2022/12/12 00:11:18;;;;;;;25.05;13.68;;;;;;;-0.45;100.00;100993.69;5068547;28;20116;-74
2022/12/12 00:13:44;;;;;;;25.63;12.18;;;;;;;-0.53;100.00;100990.84;5067337;28;20488;-74
2022/12/12 00:16:10;;;;;;;28.10;15.40;;;;;;;-0.61;100.00;100995.88;5068709;28;20082;-74
2022/12/12 00:18:36;;;;;;;30.40;15.95;;;;;;;-0.70;100.00;100993.03;5068638;28;20087;-74
2022/12/12 00:21:04;;;;;;;33.80;14.27;;;;;;;-0.76;100.00;100997.88;5068738;28;20040;-74
2022/12/12 00:23:29;;;;;;;31.95;13.70;;;;;;;-0.89;100.00;101000.66;5068641;28;20047;-73
2022/12/12 00:26:00;;;;;;;27.92;13.27;;;;;;;-0.90;100.00;101002.41;5068776;28;20151;-74
2022/12/12 00:28:26;;;;;;;24.58;12.85;;;;;;;-0.96;100.00;101000.28;5069474;28;20037;-74
2022/12/12 00:30:52;;;;;;;24.58;11.23;;;;;;;-1.05;100.00;100992.28;5069334;28;20067;-74
2022/12/12 00:33:17;;;;;;;27.15;13.05;;;;;;;-1.08;100.00;100995.16;5069311;28;20025;-73
2022/12/12 00:35:43;;;;;;;26.75;14.48;;;;;;;-1.14;100.00;100997.28;5068800;28;20024;-74
2022/12/12 00:38:09;;;;;;;26.00;13.75;;;;;;;-1.17;100.00;101000.16;5068997;28;20021;-74
2022/12/12 00:40:35;;;;;;;27.50;13.30;;;;;;;-1.21;100.00;101005.72;5069081;28;20037;-73
2022/12/12 00:43:00;;;;;;;28.23;16.27;;;;;;;-1.24;100.00;101000.72;5069099;28;20036;-73
2022/12/12 00:45:25;;;;;;;24.40;12.77;;;;;;;-1.27;100.00;101006.19;5069053;28;20074;-74
2022/12/12 00:47:51;;;;;;;28.35;13.93;;;;;;;-1.27;100.00;101003.59;5068996;28;20448;-74
2022/12/12 00:50:17;;;;;;;28.67;13.45;;;;;;;-1.32;100.00;101006.53;5069142;28;20036;-74
2022/12/12 00:52:42;;;;;;;24.70;13.55;;;;;;;-1.41;100.00;101000.22;5068658;28;20027;-74
2022/12/12 00:55:10;;;;;;;22.75;12.23;;;;;;;-1.61;100.00;100993.88;5069177;28;20119;-73
2022/12/12 00:57:35;;;;;;;28.25;13.82;;;;;;;-1.59;100.00;101010.28;5068451;28;20402;-74
2022/12/12 01:00:01;;;;;;;25.65;12.32;;;;;;;-1.67;100.00;101010.00;5067091;28;20025;-74
2022/12/12 01:02:26;;;;;;;28.83;14.48;;;;;;;-1.72;100.00;101006.06;5067965;28;20033;-73
2022/12/12 01:04:52;;;;;;;30.35;14.80;;;;;;;-1.74;100.00;101010.59;5067953;28;20028;-73
2022/12/12 01:07:17;;;;;;;26.08;11.60;;;;;;;-1.83;100.00;100996.41;5067978;28;20064;-73
2022/12/12 01:09:42;;;;;;;28.67;14.82;;;;;;;-1.83;100.00;101010.31;5068041;28;20072;-73
2022/12/12 01:12:08;;;;;;;28.42;14.18;;;;;;;-1.85;100.00;101019.22;5066752;28;20086;-73
2022/12/12 01:14:33;;;;;;;26.25;13.40;;;;;;;-1.91;100.00;101011.78;5068244;28;20050;-73
2022/12/12 01:16:58;;;;;;;30.00;14.25;;;;;;;-1.90;100.00;101023.94;5066479;28;20044;-74
2022/12/12 01:19:24;;;;;;;29.85;15.77;;;;;;;-1.91;100.00;101017.88;5070955;28;20043;-73
2022/12/12 01:21:51;;;;;;;26.20;13.68;;;;;;;-1.94;100.00;101032.94;5071431;28;20039;-73
2022/12/12 01:24:16;;;;;;;28.05;12.70;;;;;;;-1.96;100.00;101040.91;5071663;28;20104;-73
2022/12/12 01:26:41;;;;;;;31.80;16.23;;;;;;;-1.98;100.00;101041.00;5071605;28;20132;-73
2022/12/12 01:29:07;;;;;;;26.73;14.10;;;;;;;-1.99;100.00;101041.13;5072269;28;20029;-73
2022/12/12 01:31:32;;;;;;;28.67;14.13;;;;;;;-1.97;100.00;101036.59;5072269;28;20028;-73
2022/12/12 01:33:57;;;;;;;26.77;14.48;;;;;;;-2.00;100.00;101044.66;5072038;28;20020;-74
2022/12/12 01:36:23;;;;;;;25.13;12.68;;;;;;;-2.02;100.00;101052.63;5071848;28;20042;-73
2022/12/12 01:38:51;;;;;;;29.00;14.57;;;;;;;-2.08;100.00;101052.22;5072141;28;20032;-73
2022/12/12 01:41:17;;;;;;;31.38;14.50;;;;;;;-2.07;100.00;101059.13;5071867;28;20041;-73
2022/12/12 01:43:43;;;;;;;28.73;13.85;;;;;;;-2.09;100.00;101058.41;5071496;28;20045;-73
2022/12/12 01:46:34;;;;;;;27.58;13.82;;;;;;;-2.06;100.00;101060.81;5071756;28;20052;-74
2022/12/12 01:49:04;;;;;;;26.63;14.80;;;;;;;-2.15;100.00;101054.44;5071831;28;20028;-74
2022/12/12 01:51:30;;;;;;;29.48;14.77;;;;;;;-2.14;100.00;101063.97;5071575;28;20025;-74
2022/12/12 01:54:00;;;;;;;25.73;14.80;;;;;;;-2.12;100.00;101058.59;5071748;28;20036;-74
2022/12/12 01:56:26;;;;;;;28.58;14.25;;;;;;;-2.06;100.00;101066.03;5071655;28;20040;-74
2022/12/12 01:58:54;;;;;;;28.98;14.27;;;;;;;-2.07;100.00;101065.19;5071474;28;20020;-73
2022/12/12 02:01:20;;;;;;;28.23;15.38;;;;;;;-2.04;100.00;101064.16;5071094;28;20036;-74
2022/12/12 02:03:48;;;;;;;27.48;14.75;;;;;;;-2.07;100.00;101059.13;5071102;28;20036;-74
2022/12/12 02:06:18;;;;;;;32.78;14.55;;;;;;;-2.11;100.00;101055.06;5070854;28;20033;-74
2022/12/12 02:08:45;;;;;;;29.13;13.45;;;;;;;-2.04;100.00;101069.38;5071182;28;20028;-74
2022/12/12 02:11:11;;;;;;;30.42;15.73;;;;;;;-2.05;100.00;101076.34;5070787;28;20034;-73
2022/12/12 02:13:36;;;;;;;32.75;16.23;;;;;;;-2.07;100.00;101066.94;5070801;28;20029;-74
2022/12/12 02:16:21;;;;;;;28.92;16.80;;;;;;;-2.05;100.00;101075.53;5070966;28;20737;-73
2022/12/12 02:19:02;;;;;;;31.23;15.13;;;;;;;-2.06;100.00;101073.88;5070717;28;20111;-74
2022/12/12 02:21:59;;;;;;;29.27;15.90;;;;;;;-2.09;100.00;101064.47;5070956;28;20401;-73
2022/12/12 02:24:50;;;;;;;33.88;17.35;;;;;;;-2.10;100.00;101064.56;5070281;28;20028;-73
2022/12/12 02:27:24;;;;;;;29.50;16.40;;;;;;;-2.12;100.00;101077.75;5070686;28;20028;-74
2022/12/12 02:29:55;;;;;;;30.83;15.85;;;;;;;-2.13;100.00;101075.25;5070467;28;20112;-74
2022/12/12 02:32:20;;;;;;;36.08;16.65;;;;;;;-2.16;100.00;101076.28;5070920;28;20040;-73
2022/12/12 02:35:05;;;;;;;29.88;15.93;;;;;;;-2.15;100.00;101080.56;5071017;28;20456;-74
2022/12/12 02:37:44;;;;;;;32.50;16.83;;;;;;;-2.15;100.00;101077.94;5070945;28;20032;-73
2022/12/12 02:40:32;;;;;;;29.30;15.13;;;;;;;-2.14;100.00;101077.03;5070841;28;20024;-74
2022/12/12 02:43:19;;;;;;;28.58;15.13;;;;;;;-2.15;100.00;101075.34;5070813;28;20027;-74
2022/12/12 02:45:51;;;;;;;32.40;16.48;;;;;;;-2.19;100.00;101076.50;5070642;28;20207;-74
2022/12/12 02:48:27;;;;;;;27.75;16.98;;;;;;;-2.23;100.00;101075.03;5070801;28;20085;-74
2022/12/12 02:50:57;;;;;;;27.50;14.10;;;;;;;-2.27;100.00;101073.63;5070781;28;20035;-74
2022/12/12 02:53:23;;;;;;;29.88;15.65;;;;;;;-2.34;100.00;101065.34;5070550;28;20105;-73
2022/12/12 02:55:49;;;;;;;30.83;16.90;;;;;;;-2.37;100.00;101078.63;5070543;28;20036;-73
2022/12/12 02:58:18;;;;;;;33.55;17.33;;;;;;;-2.41;100.00;101066.75;5070524;28;20368;-74
2022/12/12 03:01:09;;;;;;;31.65;14.55;;;;;;;-2.47;100.00;101070.59;5070416;28;20364;-73
2022/12/12 03:10:03;;;;;;;31.08;16.33;;;;;;;-2.61;100.00;101072.53;5042431;28;20071;-74
2022/12/12 03:12:47;;;;;;;27.55;15.00;;;;;;;-2.65;100.00;101072.75;5066313;28;20055;-75
2022/12/12 03:15:16;;;;;;;29.10;15.27;;;;;;;-2.70;100.00;101071.34;5070156;28;20024;-75
2022/12/12 03:17:55;;;;;;;31.50;14.65;;;;;;;-2.80;100.00;101063.34;5069732;28;20115;-74
2022/12/12 03:20:27;;;;;;;27.73;15.35;;;;;;;-2.83;100.00;101065.31;5069896;28;20137;-74
2022/12/12 03:23:08;;;;;;;31.15;17.00;;;;;;;-2.89;100.00;101062.19;5070054;28;20028;-74
2022/12/12 03:25:53;;;;;;;26.30;14.85;;;;;;;-2.95;100.00;101057.38;5070222;28;20036;-67
2022/12/12 03:28:39;;;;;;;25.23;13.27;;;;;;;-2.91;100.00;101074.53;5070052;28;20054;-66
2022/12/12 03:31:08;;;;;;;29.42;13.35;;;;;;;-2.94;100.00;101069.47;5069666;28;20028;-67
2022/12/12 03:33:45;;;;;;;27.75;14.50;;;;;;;-2.97;100.00;101067.09;5052382;28;20437;-67
2022/12/12 03:36:23;;;;;;;30.33;14.52;;;;;;;-3.00;100.00;101074.31;5069957;28;20036;-66
2022/12/12 03:38:56;;;;;;;30.55;16.27;;;;;;;-3.02;100.00;101073.56;5069908;28;20453;-66
2022/12/12 03:41:27;;;;;;;29.83;14.75;;;;;;;-3.05;100.00;101066.78;5068958;28;20032;-67
2022/12/12 03:44:25;;;;;;;26.77;13.85;;;;;;;-3.03;100.00;101067.50;5069740;28;20498;-66
2022/12/12 03:46:56;;;;;;;28.98;14.38;;;;;;;-3.09;100.00;101067.94;5069407;28;20373;-66
2022/12/12 03:49:38;;;;;;;32.53;16.73;;;;;;;-3.05;100.00;101069.38;5069872;28;20078;-67
2022/12/12 03:52:21;;;;;;;34.00;16.80;;;;;;;-3.08;100.00;101078.25;5069476;28;20331;-67
2022/12/12 03:55:18;;;;;;;28.67;14.43;;;;;;;-3.16;100.00;101070.09;5069630;28;20035;-67
2022/12/12 03:57:56;;;;;;;29.23;14.05;;;;;;;-3.17;100.00;101081.50;5060895;28;20475;-67
2022/12/12 04:00:22;;;;;;;27.98;13.55;;;;;;;-3.20;100.00;101075.63;5069645;28;20449;-66
2022/12/12 04:03:04;;;;;;;29.85;15.10;;;;;;;-3.25;100.00;101082.91;5069594;28;20143;-66
2022/12/12 04:08:37;;;;;;;31.85;16.10;;;;;;;-3.42;100.00;101081.44;5069788;28;20087;-67
2022/12/12 04:14:09;;;;;;;29.13;13.23;;;;;;;-3.48;100.00;101094.84;5069819;28;20526;-66
2022/12/12 04:16:41;;;;;;;28.55;17.13;;;;;;;-3.52;100.00;101084.63;5069393;28;20491;-66
2022/12/12 04:23:14;;;;;;;29.63;15.73;;;;;;;-3.46;100.00;101087.78;5069293;28;20035;-66
2022/12/12 04:25:03;;;;;;;33.90;15.75;;;;;;;-3.51;100.00;101095.91;5068913;28;20236;-66
2022/12/12 04:27:43;;;;;;;33.00;16.02;;;;;;;-3.52;100.00;101094.22;5068969;28;20020;-66
2022/12/12 04:30:13;;;;;;;32.42;16.10;;;;;;;-3.56;100.00;101093.59;5068653;28;20110;-66
2022/12/12 04:32:44;;;;;;;33.80;17.35;;;;;;;-3.59;100.00;101092.94;5068133;28;20029;-66
2022/12/12 04:35:21;;;;;;;32.17;19.13;;;;;;;-3.59;100.00;101092.94;5069167;28;20108;-66
2022/12/12 04:37:54;;;;;;;29.25;14.82;;;;;;;-3.62;100.00;101101.78;5069232;28;20056;-66
2022/12/12 04:40:42;;;;;;;31.92;15.07;;;;;;;-3.69;100.00;101094.47;5069233;28;20444;-66
2022/12/12 04:43:14;;;;;;;28.42;13.93;;;;;;;-3.67;100.00;101108.25;5069259;28;20116;-67
2022/12/12 04:45:45;;;;;;;33.25;15.88;;;;;;;-3.68;100.00;101103.97;5068894;28;20048;-67
2022/12/12 04:48:15;;;;;;;32.60;15.23;;;;;;;-3.73;100.00;101101.66;5069081;28;20158;-66
2022/12/12 04:50:43;;;;;;;26.05;15.88;;;;;;;-3.79;100.00;101089.03;5068465;28;20044;-67
2022/12/12 04:53:12;;;;;;;31.90;15.15;;;;;;;-3.71;100.00;101107.63;5071592;28;20479;-66
2022/12/12 04:55:45;;;;;;;32.45;15.68;;;;;;;-3.75;100.00;101095.72;5072954;28;20479;-66
2022/12/12 04:58:12;;;;;;;31.20;15.75;;;;;;;-3.77;100.00;101100.22;5072684;28;20043;-66
2022/12/12 05:00:50;;;;;;;29.48;15.60;;;;;;;-3.86;100.00;101082.53;5072460;28;20028;-66
2022/12/12 05:03:23;;;;;;;32.97;14.63;;;;;;;-3.79;100.00;101092.47;5071429;28;20035;-67
2022/12/12 05:05:56;;;;;;;29.23;16.77;;;;;;;-3.84;100.00;101098.91;5071965;28;20097;-66
2022/12/12 05:08:27;;;;;;;32.13;15.40;;;;;;;-3.87;100.00;101104.31;5071846;28;20028;-66
2022/12/12 05:10:59;;;;;;;31.40;15.27;;;;;;;-3.86;100.00;101095.56;5071591;28;20028;-66
2022/12/12 05:13:32;;;;;;;34.42;15.65;;;;;;;-3.87;100.00;101101.72;5071817;28;20020;-66
2022/12/12 05:16:00;;;;;;;30.50;14.75;;;;;;;-3.92;100.00;101099.41;5071317;28;20024;-66
2022/12/12 05:18:25;;;;;;;28.77;16.27;;;;;;;-3.89;100.00;101100.97;5071763;28;20509;-66
2022/12/12 05:20:51;;;;;;;41.83;16.88;;;;;;;-3.96;100.00;101092.69;5071267;28;20059;-66
2022/12/12 05:23:16;;;;;;;33.78;18.33;;;;;;;-3.96;100.00;101103.13;5071407;28;20028;-66
2022/12/12 05:25:41;;;;;;;30.65;17.65;;;;;;;-3.99;100.00;101091.13;5070313;28;20383;-66
2022/12/12 05:28:07;;;;;;;32.42;17.08;;;;;;;-3.92;100.00;101107.22;5071617;28;20041;-66
2022/12/12 05:30:32;;;;;;;29.85;15.40;;;;;;;-3.94;100.00;101113.44;5072343;28;20495;-66
2022/12/12 05:32:58;;;;;;;32.35;14.52;;;;;;;-3.98;100.00;101105.00;5072241;28;20029;-66
2022/12/12 05:35:23;;;;;;;33.80;18.23;;;;;;;-4.01;100.00;101110.38;5072320;28;20479;-66
2022/12/12 05:37:49;;;;;;;29.05;15.45;;;;;;;-4.06;100.00;101110.69;5072264;28;20070;-66
2022/12/12 05:40:14;;;;;;;30.63;16.02;;;;;;;-4.08;100.00;101112.56;5072292;28;20476;-66
2022/12/12 05:42:40;;;;;;;30.15;15.45;;;;;;;-4.10;100.00;101114.41;5072040;28;20953;-66
2022/12/12 05:45:07;;;;;;;32.05;14.55;;;;;;;-4.14;100.00;101115.50;5071756;28;20906;-66
2022/12/12 05:47:33;;;;;;;27.90;15.35;;;;;;;-4.22;100.00;101110.81;5071965;28;20033;-66
2022/12/12 05:49:58;;;;;;;29.33;14.15;;;;;;;-4.20;100.00;101115.91;5071934;28;20024;-66
2022/12/12 05:52:24;;;;;;;32.90;15.10;;;;;;;-4.23;100.00;101116.09;5071986;28;20063;-66
2022/12/12 05:54:50;;;;;;;27.95;16.15;;;;;;;-4.22;100.00;101126.44;5070383;28;20036;-66
2022/12/12 05:57:17;;;;;;;26.85;15.20;;;;;;;-4.23;100.00;101123.91;5071681;28;20031;-66
2022/12/12 05:59:44;;;;;;;32.60;17.13;;;;;;;-4.22;100.00;101131.66;5071683;28;20035;-66
2022/12/12 06:02:09;;;;;;;33.17;16.27;;;;;;;-4.22;100.00;101122.97;5071504;28;20111;-66
2022/12/12 06:04:34;;;;;;;39.38;18.65;;;;;;;-4.21;100.00;101125.50;5070745;28;20559;-66
2022/12/12 06:07:00;;;;;;;32.90;16.10;;;;;;;-4.22;100.00;101125.56;5071553;28;20565;-66
2022/12/12 06:09:25;;;;;;;34.72;15.00;;;;;;;-4.33;100.00;101112.41;5071532;28;20415;-66
2022/12/12 06:11:50;;;;;;;33.58;16.27;;;;;;;-4.26;100.00;101124.09;5071891;28;20060;-66
2022/12/12 06:14:16;;;;;;;31.50;15.93;;;;;;;-4.28;100.00;101120.75;5071432;28;20082;-66
2022/12/12 06:16:41;;;;;;;32.83;17.10;;;;;;;-4.30;100.00;101123.44;5071252;28;20039;-66
2022/12/12 06:19:07;;;;;;;31.27;14.20;;;;;;;-4.33;100.00;101117.59;5071419;28;20037;-66
2022/12/12 06:21:32;;;;;;;27.20;14.85;;;;;;;-4.33;100.00;101126.25;5071331;28;20604;-66
2022/12/12 06:23:57;;;;;;;24.55;12.75;;;;;;;-4.36;100.00;101126.44;5070949;28;20111;-66
2022/12/12 06:26:23;;;;;;;30.63;15.48;;;;;;;-4.36;100.00;101133.41;5071238;28;20032;-66
2022/12/12 06:28:48;;;;;;;36.20;17.20;;;;;;;-4.35;100.00;101137.69;5071106;28;20040;-66
2022/12/12 06:31:14;;;;;;;32.45;17.05;;;;;;;-4.38;100.00;101143.91;5071104;28;20056;-66
2022/12/12 06:33:41;;;;;;;33.72;20.08;;;;;;;-4.41;100.00;101141.50;5070859;28;20487;-66
2022/12/12 06:36:12;;;;;;;33.58;15.95;;;;;;;-4.43;100.00;101141.59;5070957;28;20025;-73
2022/12/12 06:38:39;;;;;;;29.88;13.20;;;;;;;-4.45;100.00;101147.84;5070956;28;20033;-74
2022/12/12 06:41:10;;;;;;;35.90;17.42;;;;;;;-4.52;100.00;101142.16;5070715;28;20040;-74
2022/12/12 06:43:35;;;;;;;29.53;15.70;;;;;;;-4.51;100.00;101143.81;5070697;28;20021;-74
2022/12/12 06:46:05;;;;;;;34.13;15.05;;;;;;;-4.57;100.00;101143.34;5070479;28;20148;-73
2022/12/12 06:48:32;;;;;;;31.58;15.63;;;;;;;-4.55;100.00;101155.34;5070804;28;20104;-74
2022/12/12 06:50:58;;;;;;;33.60;15.48;;;;;;;-4.57;100.00;101153.75;5070511;28;20074;-73
2022/12/12 06:53:24;;;;;;;34.92;16.95;;;;;;;-4.60;100.00;101153.94;5070672;28;20037;-73
2022/12/12 06:55:50;;;;;;;28.75;15.35;;;;;;;-4.63;100.00;101153.19;5070685;28;20036;-73
2022/12/12 06:58:15;;;;;;;34.92;16.73;;;;;;;-4.74;100.00;101142.59;5070629;28;20082;-74
2022/12/12 07:00:40;;;;;;;33.38;16.38;;;;;;;-4.69;100.00;101158.78;5070397;28;20024;-74
2022/12/12 07:03:06;;;;;;;33.70;14.15;;;;;;;-4.66;100.00;101162.97;5070399;28;20480;-74
2022/12/12 07:05:32;;;;;;;33.80;17.02;;;;;;;-4.69;100.00;101163.13;5070270;28;20036;-73
2022/12/12 07:08:01;;;;;;;31.00;16.02;;;;;;;-4.70;100.00;101164.88;5070371;28;20028;-73
2022/12/12 07:10:27;;;;;;;31.02;15.25;;;;;;;-4.70;100.00;101172.69;5069931;28;20032;-73
2022/12/12 07:12:52;;;;;;;33.33;16.75;;;;;;;-4.72;100.00;101169.34;5070240;28;20032;-73
2022/12/12 07:15:18;;;;;;;27.70;16.25;;;;;;;-4.80;100.00;101155.13;5069455;28;20117;-74
2022/12/12 07:17:43;;;;;;;29.23;14.60;;;;;;;-4.74;100.00;101179.03;5069806;28;20050;-73
2022/12/12 07:20:08;;;;;;;30.40;13.95;;;;;;;-4.75;100.00;101177.34;5069893;28;20085;-72
2022/12/12 07:22:35;;;;;;;31.88;14.98;;;;;;;-4.76;100.00;101178.28;5069511;28;20024;-72
2022/12/12 07:25:01;;;;;;;34.28;17.45;;;;;;;-4.80;100.00;101170.72;5069299;28;20036;-73
2022/12/12 07:27:26;;;;;;;35.15;16.00;;;;;;;-4.76;100.00;101191.28;5067776;28;20450;-73
2022/12/12 07:29:51;;;;;;;37.75;18.25;;;;;;;-4.77;100.00;101189.59;5069167;28;20123;-73
2022/12/12 07:32:16;;;;;;;35.83;16.35;;;;;;;-4.78;100.00;101185.31;5069285;28;20109;-74
2022/12/12 07:34:42;;;;;;;39.55;19.52;;;;;;;-4.77;100.00;101192.19;5069802;28;20048;-73
2022/12/12 07:37:07;;;;;;;33.70;16.58;;;;;;;-4.78;100.00;101185.31;5069819;28;20039;-73
2022/12/12 07:39:33;;;;;;;33.83;17.98;;;;;;;-4.85;100.00;101179.66;5069913;28;20029;-73
2022/12/12 07:41:58;;;;;;;30.73;15.93;;;;;;;-4.81;100.00;101182.91;5069255;28;20059;-74
2022/12/12 07:44:25;;;;;;;32.15;13.93;;;;;;;-4.83;100.00;101181.31;5069319;28;20141;-73
2022/12/12 07:46:50;;;;;;;35.88;14.50;;;;;;;-4.80;100.00;101186.34;5069588;28;20064;-74
2022/12/12 07:49:16;;;;;;;29.92;15.13;;;;;;;-4.80;100.00;101192.38;5069605;28;20444;-74
2022/12/12 07:51:41;;;;;;;34.28;16.13;;;;;;;-4.80;100.00;101188.94;5069744;28;20031;-74
2022/12/12 07:54:06;;;;;;;28.05;14.65;;;;;;;-4.76;100.00;101199.09;5068381;28;20043;-73
2022/12/12 07:56:32;;;;;;;33.65;15.15;;;;;;;-4.74;100.00;101197.25;5069576;28;20038;-69
2022/12/12 07:58:57;;;;;;;28.77;15.10;;;;;;;-4.72;100.00;101197.97;5069495;28;20036;-74
2022/12/12 08:01:25;;;;;;;29.60;14.77;;;;;;;-4.70;100.00;101210.91;5069439;28;20841;-73
2022/12/12 08:03:51;;;;;;;36.35;16.90;;;;;;;-4.70;100.00;101203.91;5068679;28;20111;-74
2022/12/12 08:06:18;;;;;;;29.60;14.68;;;;;;;-4.69;100.00;101205.63;5068756;28;20128;-74
2022/12/12 08:08:44;;;;;;;28.38;13.18;;;;;;;-4.66;100.00;101204.59;5068613;28;20483;-74
2022/12/12 08:11:12;;;;;;;31.80;16.85;;;;;;;-4.64;100.00;101211.38;5068550;28;20082;-74
2022/12/12 08:13:38;;;;;;;32.28;13.57;;;;;;;-4.59;100.00;101213.69;5068615;28;20032;-74
2022/12/12 08:16:05;;;;;;;31.45;14.57;;;;;;;-4.55;100.00;101214.38;5068585;28;20029;-74
2022/12/12 08:18:31;;;;;;;36.20;16.45;;;;;;;-4.57;100.00;101214.44;5068828;28;20131;-74
2022/12/12 08:20:56;;;;;;;31.52;14.88;;;;;;;-4.49;100.00;101214.84;5068852;28;20563;-73
2022/12/12 08:23:22;;;;;;;34.97;15.82;;;;;;;-4.45;100.00;101215.50;5068674;28;20040;-73
2022/12/12 08:25:47;;;;;;;32.70;14.32;;;;;;;-4.42;100.00;101223.97;5068688;28;20032;-74
2022/12/12 08:28:12;;;;;;;34.45;17.58;;;;;;;-4.39;100.00;101222.13;5071753;28;20027;-73
2022/12/12 08:30:38;;;;;;;33.38;16.70;;;;;;;-4.34;100.00;101226.13;5069920;28;20029;-73
2022/12/12 08:33:03;;;;;;;28.00;14.13;;;;;;;-4.30;100.00;101219.78;5066442;28;20029;-73
2022/12/12 08:35:29;;;;;;;30.48;15.55;;;;;;;-4.28;100.00;101223.13;5067430;28;20107;-73
2022/12/12 08:37:55;;;;;;;32.90;16.23;;;;;;;-4.21;100.00;101231.44;5066903;28;20033;-73
2022/12/12 08:40:21;;;;;;;30.30;13.77;;;;;;;-4.14;100.00;101234.50;5066514;28;20129;-73
2022/12/12 08:42:46;;;;;;;32.95;16.92;;;;;;;-4.08;100.00;101228.94;5065567;28;20119;-73
2022/12/12 08:45:11;;;;;;;36.15;16.10;;;;;;;-4.02;100.00;101234.59;5066927;28;20041;-74
2022/12/12 08:47:37;;;;;;;34.05;15.30;;;;;;;-3.93;100.00;101237.56;5067275;28;20017;-73
2022/12/12 08:50:04;;;;;;;37.20;15.80;;;;;;;-3.88;100.00;101231.13;5066334;28;20107;-73
2022/12/12 08:52:29;;;;;;;31.13;15.30;;;;;;;-3.82;100.00;101232.53;5066428;28;21363;-72
2022/12/12 08:54:54;;;;;;;26.02;13.77;;;;;;;-3.73;100.00;101242.38;5066527;28;20116;-73
2022/12/12 08:57:20;;;;;;;34.00;15.15;;;;;;;-3.65;100.00;101237.53;5067089;28;20491;-73
2022/12/12 08:59:45;;;;;;;33.15;15.38;;;;;;;-3.58;100.00;101236.22;5066915;28;20036;-71
2022/12/12 09:02:11;;;;;;;34.53;15.63;;;;;;;-3.50;100.00;101240.13;5066576;28;20131;-73
2022/12/12 09:04:37;;;;;;;31.98;14.65;;;;;;;-3.48;100.00;101235.63;5066292;28;20036;-72
2022/12/12 09:07:02;;;;;;;30.10;15.85;;;;;;;-3.43;100.00;101230.97;5065174;28;20041;-71
2022/12/12 09:09:28;;;;;;;34.80;14.52;;;;;;;-3.36;100.00;101242.69;5065639;28;20029;-71
2022/12/12 09:11:53;;;;;;;30.13;16.25;;;;;;;-3.25;100.00;101253.28;5065567;28;20037;-71
2022/12/12 09:14:19;;;;;;;30.90;15.35;;;;;;;-3.21;100.00;101249.56;5065264;28;20028;-71
2022/12/12 09:16:44;;;;;;;29.50;15.05;;;;;;;-3.17;100.00;101240.59;5062081;28;20151;-72
2022/12/12 09:19:09;;;;;;;29.50;13.48;;;;;;;-3.10;100.00;101239.25;5064298;28;20048;-71
2022/12/12 09:21:35;;;;;;;34.08;13.38;;;;;;;-3.06;100.00;101239.09;5063671;28;20086;-71
2022/12/12 09:24:00;;;;;;;30.20;15.07;;;;;;;-2.98;100.00;101244.63;5064906;28;20063;-72
2022/12/12 09:26:26;;;;;;;30.85;15.23;;;;;;;-2.94;100.00;101240.88;5065840;28;20488;-72
2022/12/12 09:28:51;;;;;;;32.97;14.93;;;;;;;-2.91;100.00;101230.22;5065307;28;20032;-71
2022/12/12 09:31:17;;;;;;;31.42;12.50;;;;;;;-2.87;100.00;101239.56;5065658;28;20046;-73
2022/12/12 09:33:42;;;;;;;38.67;15.27;;;;;;;-2.82;100.00;101240.09;5065731;28;20036;-71
2022/12/12 09:36:10;;;;;;;35.25;15.48;;;;;;;-2.77;100.00;101239.78;5065602;28;20025;-71
2022/12/12 09:38:36;;;;;;;26.73;13.98;;;;;;;-2.73;100.00;101236.03;5064662;28;20032;-71
2022/12/12 09:41:08;;;;;;;33.17;16.02;;;;;;;-2.68;100.00;101239.16;5065768;28;20036;-73
2022/12/12 09:43:37;;;;;;;34.60;15.45;;;;;;;-2.67;100.00;101233.03;5064925;28;20094;-72
2022/12/12 09:46:14;;;;;;;28.20;13.57;;;;;;;-2.57;100.00;101244.50;5065290;28;20048;-66
2022/12/12 09:48:43;;;;;;;32.65;15.02;;;;;;;-2.52;100.00;101233.75;5066081;28;20032;-66
2022/12/12 09:51:10;;;;;;;28.75;13.35;;;;;;;-2.45;100.00;101237.66;5065793;28;20099;-66
2022/12/12 09:53:36;;;;;;;32.40;13.77;;;;;;;-2.45;100.00;101235.88;5064960;28;20020;-73
2022/12/12 09:56:37;;;;;;;29.63;14.48;;;;;;;-2.35;100.00;101240.47;5064678;28;20303;-66
2022/12/12 09:59:10;;;;;;;32.65;15.02;;;;;;;-2.34;100.00;101239.53;5064953;28;20488;-73
2022/12/12 10:01:51;;;;;;;32.28;14.63;;;;;;;-2.25;100.00;101242.38;5063897;28;20151;-71
2022/12/12 10:04:38;;;;;;;27.02;11.55;;;;;;;-2.14;100.00;101246.03;5065544;28;20478;-66
2022/12/12 10:07:48;;;;;;;28.05;13.10;;;;;;;-2.07;100.00;101244.66;5064693;28;20025;-72
2022/12/12 10:10:26;;;;;;;28.33;12.45;;;;;;;-2.05;100.00;101235.75;5021960;28;20040;-72
2022/12/12 10:12:54;;;;;;;27.63;13.77;;;;;;;-2.02;100.00;101227.72;5061004;28;20036;-70
2022/12/12 10:15:34;;;;;;;29.42;15.52;;;;;;;-1.92;100.00;101232.31;5066517;28;20032;-74
2022/12/12 10:18:04;;;;;;;25.20;11.27;;;;;;;-1.83;100.00;101232.50;5071140;28;20034;-72
2022/12/12 10:20:32;;;;;;;25.70;11.50;;;;;;;-1.75;100.00;101226.75;5071139;28;20025;-71
2022/12/12 10:23:12;;;;;;;32.28;13.20;;;;;;;-1.66;100.00;101222.66;5069665;28;20488;-71
2022/12/12 10:25:55;;;;;;;27.80;11.50;;;;;;;-1.60;100.00;101228.28;5070813;28;20044;-71
2022/12/12 10:28:23;;;;;;;26.85;11.45;;;;;;;-1.55;100.00;101231.41;5070666;28;20024;-71
2022/12/12 10:30:55;;;;;;;26.85;10.32;;;;;;;-1.48;100.00;101223.94;5071093;28;20016;-70
2022/12/12 10:33:52;;;;;;;26.55;12.65;;;;;;;-1.41;100.00;101224.38;5070552;28;20056;-72
2022/12/12 10:36:47;;;;;;;25.17;12.07;;;;;;;-1.36;100.00;101227.50;5070447;28;20020;-71
2022/12/12 10:39:48;;;;;;;23.77;10.82;;;;;;;-1.29;100.00;101226.06;5070820;28;20032;-71
2022/12/12 10:42:26;;;;;;;28.58;13.48;;;;;;;-1.27;100.00;101215.50;5070743;28;20167;-72
2022/12/12 10:45:37;;;;;;;23.35;13.73;;;;;;;-1.16;100.00;101223.41;5070521;28;20052;-71
2022/12/12 10:48:03;;;;;;;28.52;13.05;;;;;;;-1.11;100.00;101227.34;5068743;28;20147;-67
2022/12/12 10:50:37;;;;;;;23.92;11.63;;;;;;;-1.06;100.00;101216.56;5070083;28;20040;-67
2022/12/12 10:53:05;;;;;;;23.45;11.85;;;;;;;-0.99;100.00;101209.09;5070472;28;20020;-71
2022/12/12 10:55:40;;;;;;;20.98;11.55;;;;;;;-0.97;100.00;101210.66;5070444;28;20020;-67
2022/12/12 10:58:06;;;;;;;23.33;9.90;;;;;;;-0.93;100.00;101214.72;5070454;28;20029;-67
2022/12/12 11:00:39;;;;;;;23.77;10.80;;;;;;;-0.91;100.00;101218.06;5070384;28;20025;-67
2022/12/12 11:03:27;;;;;;;24.10;10.30;;;;;;;-0.89;100.00;101216.16;5070148;28;20025;-67
2022/12/12 11:05:56;;;;;;;25.33;11.18;;;;;;;-0.90;100.00;101211.88;5068992;28;20548;-67
2022/12/12 11:08:31;;;;;;;29.77;14.07;;;;;;;-0.80;100.00;101211.19;5070197;28;20032;-67
2022/12/12 11:11:19;;;;;;;27.48;11.45;;;;;;;-0.72;100.00;101212.28;5069905;28;20107;-67
2022/12/12 11:13:52;;;;;;;28.92;13.13;;;;;;;-0.68;100.00;101207.66;5070181;28;20855;-67
2022/12/12 11:16:25;;;;;;;20.20;10.02;;;;;;;-0.68;100.00;101192.78;5070044;28;20380;-67
2022/12/12 11:19:04;;;;;;;26.80;13.73;;;;;;;-0.62;100.00;101198.50;5070069;28;20114;-67
2022/12/12 11:21:35;;;;;;;23.23;10.93;;;;;;;-0.58;100.00;101200.75;5070008;28;20125;-67
2022/12/12 11:24:12;;;;;;;27.63;11.90;;;;;;;-0.58;100.00;101198.16;5069841;28;20039;-67
2022/12/12 11:26:48;;;;;;;25.77;12.80;;;;;;;-0.54;100.00;101196.97;5069869;28;20496;-67
2022/12/12 11:29:38;;;;;;;26.67;11.98;;;;;;;-0.48;100.00;101198.28;5069722;28;20484;-67
2022/12/12 11:32:04;;;;;;;27.48;10.68;;;;;;;-0.43;100.00;101197.94;5069796;28;20107;-67